KTYR - Tyler, Texas, USA
Distance from station: WNW 10mi, 17km
Updated: Wed, 03-Jun-2020 4:53pm CDT
Few Clouds
Few Clouds
 Wind from SW
Wind: SW 13 mph , 20 km/h
Temperature: 91°F , 33°C
Heat Index: 93°F , 34°C
Dew Point: 64°F , 18°C
Humidity: 41%
Barometer: 29.89 inHg , 1012.2 hPa
Clouds: Few Clouds
Visibility: 10 miles , 16 km
Cloud details: Few Clouds 4900 ft
2020/06/03 21:53 KTYR 032153Z 22011KT 10SM FEW049 33/18 A2989 RMK AO2 SLP113 T03280178
KRFI - Henderson Rusk C, Texas, USA
Distance from station: ESE 25mi, 40km
Updated: Wed, 03-Jun-2020 5:15pm CDT
Clear
Clear
 Wind from WSW
Wind: WSW 3 mph , 6 km/h
Temperature: 90°F , 32°C
Heat Index: 93°F , 34°C
Dew Point: 66°F , 19°C
Humidity: 46%
Barometer: 29.90 inHg , 1012.5 hPa
Clouds: Clear
Visibility: 10 miles , 16 km
2020/06/03 22:15 KRFI 032215Z AUTO 24003KT 10SM CLR 32/19 A2990 RMK AO2 T03160194
 
KJSO - Jacksonville, Texas, USA
Distance from station: S 30mi, 48km
Updated: Wed, 03-Jun-2020 5:35pm CDT
Clear
Clear
 Wind from SSE
Wind: SSE 5 mph , 7 km/h
Temperature: 88°F , 31°C
Heat Index: 92°F , 33°C
Dew Point: 68°F , 20°C
Humidity: 52%
Barometer: 29.92 inHg , 1013.2 hPa
Clouds: Clear
Visibility: 10 miles , 16 km
2020/06/03 22:35 KJSO 032235Z AUTO 16004KT 10SM CLR 31/20 A2992 RMK AO2 T03150206
KGGG - Longview, Texas, USA
Distance from station: ENE 31mi, 50km
Updated: Wed, 03-Jun-2020 4:53pm CDT
Few Clouds
Few Clouds
 Wind from WSW
Wind: WSW 8 mph , 13 km/h
Temperature: 90°F , 32°C
Heat Index: 91°F , 33°C
Dew Point: 63°F , 17°C
Humidity: 41%
Barometer: 29.88 inHg , 1011.9 hPa
Clouds: Few Clouds
Visibility: 10 miles , 16 km
Cloud details: Few Clouds 5500 ft
2020/06/03 21:53 KGGG 032153Z AUTO 25007KT 10SM FEW055 32/17 A2988 RMK AO2 SLP111 T03220172
 
KJXI - Gilmer Muni, Texas, USA
Distance from station: NNE 33mi, 53km
Updated: Wed, 03-Jun-2020 5:15pm CDT
Partly Cloudy
Partly Cloudy
 Wind from S
Wind: S 3 mph , 6 km/h
Temperature: 90°F , 32°C
Heat Index: 93°F , 34°C
Dew Point: 66°F , 19°C
Humidity: 46%
Barometer: 29.88 inHg , 1011.9 hPa
Clouds: Partly Cloudy
Visibility: 10 miles , 16 km
Cloud details: Partly Cloudy 5000 ft
Partly Cloudy 10000 ft
2020/06/03 22:15 KJXI 032215Z AUTO 17003KT 10SM SCT050 SCT100 32/19 A2988 RMK AO2 T03190190
KJDD - Mineola/Quitman, Texas, USA
Distance from station: NNW 35mi, 56km
Updated: Wed, 03-Jun-2020 5:15pm CDT
Partly Cloudy
Partly Cloudy
 Wind from S
Wind: S 6 mph , 9 km/h
Temperature: 90°F , 32°C
Heat Index: 94°F , 34°C
Dew Point: 68°F , 20°C
Humidity: 49%
Barometer: 29.88 inHg , 1011.9 hPa
Clouds: Partly Cloudy
Visibility: 10 miles , 16 km
Cloud details: Partly Cloudy 5000 ft
2020/06/03 22:15 KJDD 032215Z AUTO 18005KT 10SM SCT050 32/20 A2988 RMK AO2
 
KF44 - Athens, Texas, USA
Distance from station: WSW 36mi, 57km
Updated: Wed, 03-Jun-2020 5:15pm CDT
Clear
Clear
 Wind from SSE
Wind: SSE 6 mph , 9 km/h
Temperature: 90°F , 32°C
Heat Index: 93°F , 34°C
Dew Point: 66°F , 19°C
Humidity: 46%
Barometer: 29.88 inHg , 1011.9 hPa
Clouds: Clear
Visibility: 10 miles , 16 km
2020/06/03 22:15 KF44 032215Z AUTO 16005KT 10SM CLR 32/19 A2988 RMK AO2
KPSN - Palestine Muni, Texas, USA
Distance from station: SW 44mi, 71km
Updated: Wed, 03-Jun-2020 5:15pm CDT
Clear
Clear
 Wind from S
Wind: S 3 mph , 6 km/h
Temperature: 88°F , 31°C
Heat Index: 93°F , 34°C
Dew Point: 70°F , 21°C
Humidity: 55%
Barometer: 29.90 inHg , 1012.5 hPa
Clouds: Clear
Visibility: 10 miles , 16 km
2020/06/03 22:15 KPSN 032215Z AUTO 18003KT 10SM CLR 31/21 A2990 RMK AO2 T03120209
 
KASL - Marshall, Texas, USA
Distance from station: ENE 57mi, 92km
Updated: Wed, 03-Jun-2020 5:15pm CDT
Partly Cloudy
Partly Cloudy
 Wind from S
Wind: S 6 mph , 9 km/h
Temperature: 90°F , 32°C
Heat Index: 93°F , 34°C
Dew Point: 66°F , 19°C
Humidity: 46%
Barometer: 29.91 inHg , 1012.9 hPa
Clouds: Partly Cloudy
Visibility: 10 miles , 16 km
Cloud details: Partly Cloudy 5000 ft
2020/06/03 22:15 KASL 032215Z AUTO 18005KT 10SM SCT050 32/19 A2991 RMK AO1 T03220187
KOSA - Mount Pleasant, Texas, USA
Distance from station: NNE 58mi, 93km
Updated: Wed, 03-Jun-2020 5:15pm CDT
Clear
Clear
 Wind from S
Wind: S 6 mph , 9 km/h
Temperature: 91°F , 33°C
Heat Index: 96°F , 36°C
Dew Point: 70°F , 21°C
Humidity: 49%
Barometer: 29.89 inHg , 1012.2 hPa
Clouds: Clear
Visibility: 7 miles , 11 km
2020/06/03 22:15 KOSA 032215Z AUTO 19005KT 7SM CLR 33/21 A2989 RMK AO1 T03300207
 
KOCH - Nacogdoches, Texas, USA
Distance from station: SSE 59mi, 95km
Updated: Wed, 03-Jun-2020 4:56pm CDT
Haze, Mostly cloudy
Haze, Mostly cloudy
 Wind from SSW
Wind: SSW 8 mph , 13 km/h
Temperature: 91°F , 33°C
Heat Index: 96°F , 36°C
Dew Point: 70°F , 21°C
Humidity: 49%
Barometer: 29.90 inHg , 1012.5 hPa
Summary: Haze
Clouds: Mostly Cloudy
Visibility: 5 miles , 8 km
Cloud details: Mostly Cloudy 5000 ft
2020/06/03 21:56 KOCH 032156Z AUTO 21007KT 5SM HZ BKN050 33/21 A2990 RMK AO2 SLP124 T03280211
KSLR - Sulphur Springs, Texas, USA
Distance from station: NNW 64mi, 103km
Updated: Wed, 03-Jun-2020 5:15pm CDT
Partly Cloudy
Partly Cloudy
 Wind from SSW
Wind: SSW 6 mph , 9 km/h
Temperature: 95°F , 35°C
Dew Point: 64°F , 18°C
Humidity: 36%
Barometer: 29.90 inHg , 1012.5 hPa
Clouds: Partly Cloudy
Visibility: 10 miles , 16 km
Cloud details: Partly Cloudy 5000 ft
2020/06/03 22:15 KSLR 032215Z AUTO 20005KT 10SM SCT050 35/18 A2990 RMK AO2 T03450183
 
KTRL - Terrell, Texas, USA
Distance from station: WNW 66mi, 107km
Updated: Wed, 03-Jun-2020 4:53pm CDT
Clear
Clear
 Wind from S
Wind: S 6 mph , 9 km/h, Gust: 16 mph , 26 km/h
Temperature: 91°F , 33°C
Heat Index: 93°F , 34°C
Dew Point: 64°F , 18°C
Humidity: 41%
Barometer: 29.89 inHg , 1012.2 hPa
Clouds: Clear
Visibility: 10 miles , 16 km
2020/06/03 21:53 KTRL 032153Z AUTO 18005G14KT 10SM CLR 33/18 A2989 RMK AO2 SLP113 T03280183
KCRS - Corsicana, Texas, USA
Distance from station: WSW 70mi, 113km
Updated: Wed, 03-Jun-2020 4:53pm CDT
Clear
Clear
 Wind from SE
Wind: SE 9 mph , 15 km/h
Temperature: 90°F , 32°C
Heat Index: 94°F , 34°C
Dew Point: 68°F , 20°C
Humidity: 49%
Barometer: 29.90 inHg , 1012.5 hPa
Clouds: Clear
Visibility: 10 miles , 16 km
2020/06/03 21:53 KCRS 032153Z AUTO 14008KT 10SM CLR 32/20 A2990 RMK AO2 SLP118 T03220200
 
KGVT - Greenville/Major, Texas, USA
Distance from station: NW 72mi, 115km
Updated: Wed, 03-Jun-2020 5:10pm CDT
Clear
Clear
 Wind from S
Wind: S 7 mph , 11 km/h
Temperature: 91°F , 33°C
Dew Point: 63°F , 17°C
Humidity: 38%
Barometer: 29.89 inHg , 1012.2 hPa
Clouds: Clear
Visibility: 10 miles , 16 km
2020/06/03 22:10 KGVT 032210Z AUTO 17006KT 10SM CLR 33/17 A2989 RMK AO2

Metar display script from Saratoga-Weather.org